Time;durP1;ratioP1;P1;durP2;ratioP2;P2;SDS_P1;SDS_P2;PMS_P1;PMS_P2;Temp;Humidity;BMP_temperature;BMP_pressure;BME280_temperature;BME280_humidity;BME280_pressure;Samples;Min_cycle;Max_cycle;Signal;HPM_P1;HPM_P2
2021/06/23 00:01:46;;;;;;;6.83;5.67;;;21.00;99.90;;;;;;6322699;28;20741;-71
2021/06/23 00:04:51;;;;;;;6.70;5.50;;;20.90;99.90;;;;;;6324356;28;20533;-71
2021/06/23 00:07:54;;;;;;;6.20;5.60;;;20.90;99.90;;;;;;6306342;28;20193;-71
2021/06/23 00:10:56;;;;;;;5.57;5.07;;;20.90;99.90;;;;;;6322689;28;20194;-71
2021/06/23 00:13:58;;;;;;;5.93;5.33;;;20.90;99.90;;;;;;6322582;28;20233;-71
2021/06/23 00:17:00;;;;;;;7.67;5.70;;;20.80;99.90;;;;;;6322045;28;20570;-71
2021/06/23 00:20:05;;;;;;;7.17;5.80;;;20.80;99.90;;;;;;6304130;28;20559;-71
2021/06/23 00:23:07;;;;;;;7.03;6.37;;;20.80;99.90;;;;;;6321812;28;20197;-71
2021/06/23 00:26:09;;;;;;;6.60;6.00;;;20.70;99.90;;;;;;6321539;28;20193;-71
2021/06/23 00:29:12;;;;;;;6.80;6.20;;;20.70;99.90;;;;;;6321396;28;20280;-71
2021/06/23 00:32:18;;;;;;;9.97;7.20;;;20.70;99.90;;;;;;6321458;28;20182;-71
2021/06/23 00:35:20;;;;;;;7.53;6.83;;;20.70;99.90;;;;;;6320397;28;20202;-71
2021/06/23 00:38:22;;;;;;;8.57;7.40;;;20.70;99.90;;;;;;6321058;28;20213;-71
2021/06/23 00:41:25;;;;;;;7.90;7.13;;;20.60;99.90;;;;;;6321616;28;20186;-71
2021/06/23 00:44:30;;;;;;;7.30;6.60;;;20.70;99.90;;;;;;6320452;28;20232;-71
2021/06/23 00:47:32;;;;;;;9.03;6.73;;;20.70;99.90;;;;;;6319761;28;20200;-71
2021/06/23 00:50:38;;;;;;;7.33;6.73;;;20.60;99.90;;;;;;6321440;28;20666;-71
2021/06/23 00:53:49;;;;;;;8.27;6.70;;;20.50;99.90;;;;;;6319943;28;20182;-71
2021/06/23 00:56:54;;;;;;;7.43;6.83;;;20.40;99.90;;;;;;6320195;28;20210;-71
2021/06/23 00:59:57;;;;;;;6.83;6.20;;;20.40;99.90;;;;;;6321393;28;20239;-71
2021/06/23 01:03:00;;;;;;;7.33;6.63;;;20.40;99.90;;;;;;6321016;28;20178;-71
2021/06/23 01:06:04;;;;;;;7.43;6.17;;;20.50;99.90;;;;;;6303815;28;20209;-70
2021/06/23 01:09:07;;;;;;;7.53;6.40;;;20.50;99.90;;;;;;6319789;28;20258;-71
2021/06/23 01:12:26;;;;;;;7.57;6.87;;;20.50;99.90;;;;;;6271512;28;1388371;-71
2021/06/23 01:15:29;;;;;;;7.63;6.80;;;20.40;99.90;;;;;;6321567;28;20269;-71
2021/06/23 01:18:36;;;;;;;6.90;6.20;;;20.30;99.90;;;;;;6321908;28;20202;-71
2021/06/23 01:21:42;;;;;;;8.20;6.77;;;20.20;99.90;;;;;;6322121;28;20183;-71
2021/06/23 01:24:45;;;;;;;8.33;7.50;;;20.20;99.90;;;;;;6303908;28;20282;-71
2021/06/23 01:27:47;;;;;;;7.97;7.17;;;20.20;99.90;;;;;;6320807;28;20208;-71
2021/06/23 01:30:51;;;;;;;8.37;6.93;;;20.10;99.90;;;;;;6319899;28;20198;-71
2021/06/23 01:34:05;;;;;;;8.10;7.40;;;20.10;99.90;;;;;;6305451;28;20201;-71
2021/06/23 01:37:08;;;;;;;8.03;7.23;;;20.10;99.90;;;;;;6320279;28;20209;-71
2021/06/23 01:40:11;;;;;;;8.13;7.33;;;20.10;99.90;;;;;;6319605;28;20194;-71
2021/06/23 01:43:13;;;;;;;8.63;7.27;;;20.20;99.90;;;;;;6319760;28;20195;-71
2021/06/23 01:46:16;;;;;;;8.40;7.70;;;20.20;99.90;;;;;;6319532;28;20201;-72
2021/06/23 01:49:20;;;;;;;7.43;6.73;;;20.20;99.90;;;;;;6320128;28;20657;-72
2021/06/23 01:52:24;;;;;;;7.63;6.93;;;20.20;99.90;;;;;;6303082;28;20190;-72
2021/06/23 01:55:29;;;;;;;8.27;7.53;;;20.20;99.90;;;;;;6303362;28;20201;-72
2021/06/23 01:58:40;;;;;;;7.77;7.00;;;20.20;99.90;;;;;;6319734;28;20218;-72
2021/06/23 02:02:21;;;;;;;8.80;7.83;;;20.20;99.90;;;;;;6319466;28;20200;-72
2021/06/23 02:06:04;;;;;;;8.40;7.50;;;20.30;99.90;;;;;;6292643;28;20199;-72
2021/06/23 02:09:19;;;;;;;7.80;7.00;;;20.30;99.90;;;;;;6289219;28;20206;-71
2021/06/23 02:13:04;;;;;;;8.77;7.37;;;20.40;99.90;;;;;;6260933;28;20595;-71
2021/06/23 02:16:11;;;;;;;7.47;6.77;;;20.40;99.90;;;;;;6258500;28;20665;-71
2021/06/23 02:19:15;;;;;;;8.30;6.70;;;20.50;99.90;;;;;;6292777;28;20217;-71
2021/06/23 02:22:36;;;;;;;8.17;6.87;;;20.50;99.90;;;;;;6292256;28;20199;-71
2021/06/23 02:25:49;;;;;;;8.03;7.23;;;20.50;99.90;;;;;;6292527;28;20963;-71
2021/06/23 02:28:56;;;;;;;7.43;6.80;;;20.60;99.90;;;;;;6292492;28;20198;-71
2021/06/23 02:32:00;;;;;;;7.57;6.30;;;20.60;99.90;;;;;;6292088;28;20186;-71
2021/06/23 02:35:09;;;;;;;9.50;7.03;;;20.60;99.90;;;;;;6275471;28;20248;-71
2021/06/23 02:38:23;;;;;;;7.23;6.53;;;20.60;99.90;;;;;;6274997;28;20238;-71
2021/06/23 02:41:27;;;;;;;7.60;6.53;;;20.70;99.90;;;;;;6287079;28;20194;-71
2021/06/23 02:44:30;;;;;;;7.70;6.10;;;20.70;99.90;;;;;;6293265;28;20557;-71
2021/06/23 02:47:34;;;;;;;7.77;6.10;;;20.70;99.90;;;;;;6277371;28;20275;-71
2021/06/23 02:51:05;;;;;;;6.47;5.93;;;20.70;99.90;;;;;;6293723;28;20748;-71
2021/06/23 02:54:11;;;;;;;9.10;6.50;;;20.70;99.90;;;;;;6294447;28;20650;-71
2021/06/23 02:57:36;;;;;;;6.50;5.90;;;20.70;99.90;;;;;;6285725;28;20214;-71
2021/06/23 03:00:41;;;;;;;6.60;5.93;;;20.80;99.90;;;;;;6318213;28;20331;-71
2021/06/23 03:03:45;;;;;;;6.97;6.10;;;20.80;99.90;;;;;;6301951;28;20190;-71
2021/06/23 03:06:48;;;;;;;6.13;5.53;;;20.70;99.90;;;;;;6319539;28;20182;-71
2021/06/23 03:10:08;;;;;;;7.33;6.07;;;20.70;99.90;;;;;;6318585;28;20278;-71
2021/06/23 03:13:29;;;;;;;6.30;5.70;;;20.80;99.90;;;;;;6318390;28;20214;-71
2021/06/23 03:16:54;;;;;;;6.37;5.77;;;20.80;99.90;;;;;;6309095;28;20274;-71
2021/06/23 03:19:57;;;;;;;6.70;5.97;;;20.70;99.90;;;;;;6318491;28;20661;-71
2021/06/23 03:22:59;;;;;;;6.00;5.53;;;20.70;99.90;;;;;;6318019;28;20289;-71
2021/06/23 03:26:02;;;;;;;5.83;5.30;;;20.70;99.90;;;;;;6301683;28;20202;-71
2021/06/23 03:29:23;;;;;;;5.30;4.77;;;20.70;99.90;;;;;;6301713;28;20259;-71
2021/06/23 03:32:26;;;;;;;7.27;4.97;;;20.70;99.90;;;;;;6318008;28;20660;-71
2021/06/23 03:35:28;;;;;;;6.43;4.50;;;20.70;99.90;;;;;;6317747;28;20224;-71
2021/06/23 03:38:32;;;;;;;5.50;4.67;;;20.70;99.90;;;;;;6300766;28;20300;-71
2021/06/23 03:41:35;;;;;;;4.97;4.57;;;20.80;99.90;;;;;;6319012;28;20669;-71
2021/06/23 03:44:38;;;;;;;5.90;4.40;;;20.80;99.90;;;;;;6318510;28;20189;-71
2021/06/23 03:47:46;;;;;;;4.47;4.07;;;20.90;99.90;;;;;;6319272;28;20201;-72
2021/06/23 03:50:50;;;;;;;3.90;3.60;;;21.00;99.90;;;;;;6318527;28;20500;-71
2021/06/23 03:53:53;;;;;;;5.10;4.40;;;21.00;99.90;;;;;;6318920;28;20303;-71
2021/06/23 03:56:55;;;;;;;4.20;3.70;;;21.10;99.90;;;;;;6317563;28;20206;-71
2021/06/23 03:59:57;;;;;;;3.70;3.30;;;21.10;99.90;;;;;;6318814;28;20210;-71
2021/06/23 04:03:00;;;;;;;4.10;3.67;;;21.10;99.90;;;;;;6300991;28;20214;-71
2021/06/23 04:06:22;;;;;;;3.53;3.20;;;21.20;99.90;;;;;;6321808;28;20633;-71
2021/06/23 04:09:24;;;;;;;3.83;3.43;;;21.20;99.90;;;;;;6323431;28;20676;-71
2021/06/23 04:12:32;;;;;;;3.60;2.90;;;21.20;99.90;;;;;;6321721;28;20238;-71
2021/06/23 04:15:34;;;;;;;4.23;2.87;;;21.20;99.90;;;;;;6321496;28;20201;-71
2021/06/23 04:18:36;;;;;;;4.83;2.50;;;21.20;99.90;;;;;;6321848;28;20214;-71
2021/06/23 04:21:39;;;;;;;2.80;2.53;;;21.10;99.90;;;;;;6321378;28;20653;-71
2021/06/23 04:24:46;;;;;;;3.63;3.13;;;21.20;99.90;;;;;;6321812;28;20307;-71
2021/06/23 04:27:49;;;;;;;3.13;2.80;;;21.20;99.90;;;;;;6322959;28;20194;-71
2021/06/23 04:30:54;;;;;;;3.57;2.60;;;21.20;99.90;;;;;;6322182;28;20170;-71
2021/06/23 04:33:57;;;;;;;3.30;2.40;;;21.20;99.90;;;;;;6321239;28;20198;-71
2021/06/23 04:37:00;;;;;;;4.53;2.60;;;21.30;99.90;;;;;;6321076;28;20747;-71
2021/06/23 04:40:04;;;;;;;3.10;2.73;;;21.30;99.90;;;;;;6321679;28;20213;-71
2021/06/23 04:43:09;;;;;;;3.27;2.40;;;21.30;99.90;;;;;;6322297;28;20197;-71
2021/06/23 04:46:12;;;;;;;3.17;2.30;;;21.40;99.90;;;;;;6304748;28;20198;-71
2021/06/23 04:49:16;;;;;;;3.90;2.83;;;21.40;99.90;;;;;;6304584;28;20217;-71
2021/06/23 04:52:37;;;;;;;3.73;3.00;;;21.40;99.90;;;;;;6322154;28;20170;-71
2021/06/23 04:55:39;;;;;;;2.83;2.53;;;21.50;99.90;;;;;;6320747;28;20198;-71
2021/06/23 04:58:48;;;;;;;2.53;2.33;;;21.50;99.90;;;;;;6320788;28;20225;-71
2021/06/23 05:01:50;;;;;;;3.73;2.43;;;21.60;99.90;;;;;;6322316;28;20304;-71
2021/06/23 05:04:53;;;;;;;2.50;2.30;;;21.60;99.90;;;;;;6321643;28;20194;-71
2021/06/23 05:07:55;;;;;;;2.50;2.30;;;21.70;99.90;;;;;;6322076;28;20190;-71
2021/06/23 05:10:57;;;;;;;2.70;2.50;;;21.70;99.90;;;;;;6320732;28;20190;-71
2021/06/23 05:14:05;;;;;;;2.93;2.40;;;21.80;99.90;;;;;;6321169;28;20231;-71
2021/06/23 05:17:08;;;;;;;3.40;2.70;;;21.90;99.90;;;;;;6320719;28;20182;-71
2021/06/23 05:20:16;;;;;;;3.03;2.73;;;21.90;99.90;;;;;;6320142;28;20775;-71
2021/06/23 05:23:18;;;;;;;2.73;2.43;;;22.00;99.90;;;;;;6320816;28;20187;-71
2021/06/23 05:26:20;;;;;;;3.57;2.70;;;22.10;99.90;;;;;;6303445;28;20182;-71
2021/06/23 05:29:23;;;;;;;5.03;2.83;;;22.10;99.90;;;;;;6321123;28;20205;-71
2021/06/23 05:32:25;;;;;;;3.70;3.10;;;22.10;99.90;;;;;;6321496;28;20190;-71
2021/06/23 05:35:28;;;;;;;3.40;2.90;;;22.20;99.90;;;;;;6319627;28;20200;-71
2021/06/23 05:38:30;;;;;;;3.53;2.97;;;22.30;99.90;;;;;;6321203;28;20202;-71
2021/06/23 05:41:32;;;;;;;5.03;3.70;;;22.40;99.90;;;;;;6320573;28;20189;-71
2021/06/23 05:44:34;;;;;;;5.30;3.83;;;22.50;99.90;;;;;;6321100;28;20178;-71
2021/06/23 05:47:37;;;;;;;4.50;4.10;;;22.60;99.90;;;;;;6321231;28;20182;-71
2021/06/23 05:50:41;;;;;;;6.33;4.40;;;22.60;99.90;;;;;;6319410;28;20186;-71
2021/06/23 05:53:43;;;;;;;5.90;5.30;;;22.60;99.90;;;;;;6320941;28;20735;-71
2021/06/23 05:56:46;;;;;;;6.70;4.47;;;22.50;99.90;;;;;;6320347;28;20186;-73
2021/06/23 05:59:48;;;;;;;5.47;4.97;;;22.50;99.90;;;;;;6302610;28;20221;-73
2021/06/23 06:02:51;;;;;;;5.50;4.70;;;22.50;99.90;;;;;;6319712;28;20193;-74
2021/06/23 06:05:53;;;;;;;6.17;4.83;;;22.60;99.90;;;;;;6318886;28;20182;-74
2021/06/23 06:08:55;;;;;;;5.77;5.00;;;22.70;99.90;;;;;;6319214;28;20193;-74
2021/06/23 06:11:57;;;;;;;7.20;5.73;;;22.80;99.90;;;;;;6318642;28;20233;-74
2021/06/23 06:15:00;;;;;;;8.03;5.97;;;22.80;99.90;;;;;;6319070;28;20193;-74
2021/06/23 06:18:04;;;;;;;7.03;5.57;;;22.80;99.90;;;;;;6320474;28;20314;-73
2021/06/23 06:21:06;;;;;;;6.67;6.00;;;22.90;99.90;;;;;;6318686;28;20182;-73
2021/06/23 06:24:09;;;;;;;7.50;6.27;;;23.00;99.90;;;;;;6302326;28;20190;-73
2021/06/23 06:27:11;;;;;;;6.27;5.33;;;23.20;99.90;;;;;;6318171;28;20194;-72
2021/06/23 06:30:14;;;;;;;6.47;5.70;;;23.40;99.90;;;;;;6318822;28;20197;-72
2021/06/23 06:33:16;;;;;;;6.37;5.60;;;23.60;99.90;;;;;;6318660;28;20688;-72
2021/06/23 06:36:19;;;;;;;6.93;6.23;;;23.80;99.90;;;;;;6301482;28;20437;-72
2021/06/23 06:39:21;;;;;;;7.07;5.80;;;24.10;99.90;;;;;;6320293;28;20595;-72
2021/06/23 06:42:23;;;;;;;7.13;5.00;;;24.20;99.90;;;;;;6319596;28;20189;-72
2021/06/23 06:45:26;;;;;;;6.23;5.70;;;24.30;99.90;;;;;;6319825;28;20206;-72
2021/06/23 06:48:29;;;;;;;5.80;5.20;;;24.40;99.90;;;;;;6301469;28;20587;-72
2021/06/23 06:51:32;;;;;;;9.30;5.10;;;24.50;99.90;;;;;;6318356;28;20602;-72
2021/06/23 06:54:34;;;;;;;9.13;5.17;;;24.70;99.90;;;;;;6318282;28;20201;-72
2021/06/23 06:57:36;;;;;;;6.77;5.27;;;24.70;99.90;;;;;;6317889;28;20217;-71
2021/06/23 07:00:39;;;;;;;6.87;5.83;;;24.80;99.90;;;;;;6318276;28;20262;-71
2021/06/23 07:03:41;;;;;;;5.90;5.00;;;24.90;99.90;;;;;;6318108;28;20182;-71
2021/06/23 07:06:45;;;;;;;5.00;4.50;;;25.10;99.90;;;;;;6320181;28;20200;-72
2021/06/23 07:09:47;;;;;;;5.40;4.90;;;25.40;99.90;;;;;;6318293;28;20200;-72
2021/06/23 07:12:50;;;;;;;4.87;4.27;;;25.60;99.90;;;;;;6318918;28;20225;-73
2021/06/23 07:15:52;;;;;;;5.87;5.20;;;25.60;99.90;;;;;;6319314;28;20664;-72
2021/06/23 07:18:54;;;;;;;6.17;5.20;;;25.50;99.90;;;;;;6317775;28;20574;-72
2021/06/23 07:21:57;;;;;;;5.78;5.18;;;25.50;99.90;;;;;;6318035;28;20301;-72
2021/06/23 07:24:59;;;;;;;6.30;5.67;;;25.50;99.90;;;;;;6318040;28;20189;-72
2021/06/23 07:28:02;;;;;;;6.30;5.70;;;25.50;99.90;;;;;;6318902;28;20259;-72
2021/06/23 07:31:07;;;;;;;7.10;6.28;;;25.50;99.90;;;;;;6318407;28;20205;-71
2021/06/23 07:37:14;;;;;;;5.55;4.90;;;25.40;99.90;;;;;;6319344;28;20209;-71
2021/06/23 07:40:17;;;;;;;5.35;4.72;;;25.70;99.90;;;;;;6303799;28;20276;-71
2021/06/23 07:43:20;;;;;;;5.90;4.72;;;26.10;99.80;;;;;;6306620;28;20217;-71
2021/06/23 07:46:23;;;;;;;6.05;5.25;;;26.40;98.80;;;;;;6323272;28;20190;-70
2021/06/23 07:49:35;;;;;;;5.68;4.78;;;26.60;98.30;;;;;;6306442;28;20198;-70
2021/06/23 07:55:51;;;;;;;5.28;4.78;;;26.50;97.50;;;;;;6323761;28;20242;-70
2021/06/23 08:08:57;;;;;;;7.22;4.80;;;27.00;95.80;;;;;;6322454;28;20324;-70
2021/06/23 08:15:14;;;;;;;7.70;4.20;;;27.10;95.10;;;;;;6323334;28;20186;-70
2021/06/23 08:18:20;;;;;;;4.18;3.80;;;27.20;95.50;;;;;;6305018;28;20201;-70
2021/06/23 08:21:22;;;;;;;5.80;4.38;;;27.50;94.90;;;;;;6323510;28;20216;-70
2021/06/23 08:24:25;;;;;;;5.70;4.28;;;27.80;94.20;;;;;;6322716;28;20194;-70
2021/06/23 08:27:27;;;;;;;5.00;4.50;;;28.10;94.40;;;;;;6305212;28;20209;-70
2021/06/23 08:30:29;;;;;;;5.00;4.47;;;28.30;93.30;;;;;;6322062;28;20193;-70
2021/06/23 08:33:31;;;;;;;5.32;4.28;;;28.50;92.60;;;;;;6322918;28;20197;-70
2021/06/23 08:36:34;;;;;;;4.68;4.28;;;28.60;92.40;;;;;;6322769;28;20206;-70
2021/06/23 08:39:38;;;;;;;5.68;4.25;;;28.70;92.20;;;;;;6321225;28;20285;-70
2021/06/23 08:42:42;;;;;;;4.32;3.92;;;28.80;91.10;;;;;;6312591;28;20226;-70
2021/06/23 08:45:45;;;;;;;6.18;4.18;;;28.40;91.20;;;;;;6320534;28;20194;-70
2021/06/23 08:48:47;;;;;;;5.40;4.47;;;27.90;92.20;;;;;;6305224;28;20661;-70
2021/06/23 08:51:50;;;;;;;8.63;4.82;;;28.00;92.70;;;;;;6318337;28;20275;-70
2021/06/23 08:54:54;;;;;;;6.40;4.30;;;28.20;92.80;;;;;;6302583;28;20675;-70
2021/06/23 08:57:59;;;;;;;7.00;4.45;;;28.50;92.60;;;;;;6319528;28;20565;-70
2021/06/23 09:01:02;;;;;;;6.15;3.90;;;28.50;91.70;;;;;;6319673;28;20230;-70
2021/06/23 09:04:10;;;;;;;5.10;4.03;;;28.60;91.50;;;;;;6311449;28;20225;-70
2021/06/23 09:07:15;;;;;;;6.50;4.85;;;28.60;91.10;;;;;;6308694;28;20190;-70
2021/06/23 09:10:24;;;;;;;4.72;4.18;;;29.00;90.80;;;;;;6302901;28;20225;-70
2021/06/23 09:13:27;;;;;;;7.53;4.07;;;29.50;90.10;;;;;;6298377;28;20227;-70
2021/06/23 09:16:30;;;;;;;8.00;4.32;;;29.40;87.90;;;;;;6319183;28;20700;-70
2021/06/23 09:19:41;;;;;;;5.15;4.20;;;29.50;87.30;;;;;;6310573;28;20205;-70
2021/06/23 09:22:47;;;;;;;6.63;4.40;;;29.60;87.90;;;;;;6311506;28;20677;-70
2021/06/23 09:25:49;;;;;;;4.80;3.97;;;29.60;86.70;;;;;;6304194;28;20278;-70
2021/06/23 09:29:10;;;;;;;6.32;3.90;;;29.60;87.10;;;;;;6313209;28;20269;-70
2021/06/23 09:32:15;;;;;;;6.57;4.30;;;29.70;85.70;;;;;;6316077;28;20535;-70
2021/06/23 09:35:27;;;;;;;5.57;4.43;;;29.80;85.40;;;;;;6315314;28;20274;-70
2021/06/23 09:38:50;;;;;;;6.20;3.90;;;30.00;83.90;;;;;;6317202;28;20202;-69
2021/06/23 09:41:53;;;;;;;4.88;4.35;;;30.20;83.90;;;;;;6305687;28;20526;-70
2021/06/23 09:45:11;;;;;;;4.63;4.22;;;30.10;82.60;;;;;;6316765;28;20519;-69
2021/06/23 09:48:13;;;;;;;8.02;4.30;;;30.30;81.80;;;;;;6315610;28;20213;-71
2021/06/23 09:51:21;;;;;;;4.68;4.28;;;30.20;81.00;;;;;;6314588;28;20238;-72
2021/06/23 09:54:26;;;;;;;7.60;4.32;;;30.10;81.30;;;;;;6306245;28;20193;-71
2021/06/23 09:57:31;;;;;;;4.47;4.07;;;30.40;79.00;;;;;;6307294;28;20208;-71
2021/06/23 10:00:36;;;;;;;5.13;4.57;;;30.80;79.40;;;;;;6290050;28;20213;-71
2021/06/23 10:03:53;;;;;;;5.13;3.83;;;31.20;78.00;;;;;;6307630;28;20312;-71
2021/06/23 10:06:55;;;;;;;8.90;4.43;;;31.10;73.80;;;;;;6306440;28;20644;-71
2021/06/23 10:09:57;;;;;;;5.50;4.40;;;31.00;75.20;;;;;;6304077;28;20198;-73
2021/06/23 10:13:00;;;;;;;4.22;3.83;;;31.10;75.10;;;;;;6306745;28;20306;-72
2021/06/23 10:16:03;;;;;;;5.43;3.83;;;31.30;75.30;;;;;;6314008;28;20198;-71
2021/06/23 10:19:07;;;;;;;6.85;3.63;;;31.50;70.30;;;;;;6317921;28;20210;-71
2021/06/23 10:22:11;;;;;;;4.20;3.60;;;31.70;70.90;;;;;;6315801;28;20270;-72
2021/06/23 10:25:29;;;;;;;4.15;3.78;;;32.00;68.60;;;;;;6309457;28;20704;-72
2021/06/23 10:28:33;;;;;;;4.90;3.58;;;31.60;68.10;;;;;;6312082;28;20183;-72
2021/06/23 10:31:36;;;;;;;5.25;3.85;;;31.30;69.00;;;;;;6304960;28;20193;-72
2021/06/23 10:34:38;;;;;;;4.85;3.83;;;31.50;68.60;;;;;;6299719;28;20572;-72
2021/06/23 10:37:42;;;;;;;5.38;3.83;;;31.60;66.10;;;;;;6303195;28;20218;-71
2021/06/23 10:40:45;;;;;;;5.55;3.63;;;31.60;65.00;;;;;;6302289;28;20202;-71
2021/06/23 10:44:25;;;;;;;5.18;3.60;;;31.60;65.80;;;;;;6302751;28;20198;-71
2021/06/23 10:47:39;;;;;;;4.93;3.40;;;31.70;65.20;;;;;;6301663;28;20594;-71
2021/06/23 10:50:42;;;;;;;5.38;3.60;;;31.90;65.00;;;;;;6295269;28;20357;-71
2021/06/23 10:53:44;;;;;;;5.18;3.72;;;32.40;65.90;;;;;;6298570;28;20756;-71
2021/06/23 10:56:47;;;;;;;4.22;3.83;;;32.70;61.20;;;;;;6301427;28;20202;-71
2021/06/23 10:59:51;;;;;;;4.10;3.55;;;32.90;61.30;;;;;;6299405;28;20215;-71
2021/06/23 11:03:12;;;;;;;5.05;3.47;;;32.80;60.50;;;;;;6309363;28;20185;-71
2021/06/23 11:06:45;;;;;;;5.65;3.75;;;33.10;60.20;;;;;;6306108;28;20191;-71
2021/06/23 11:09:47;;;;;;;6.10;4.10;;;33.50;59.10;;;;;;6306907;28;20205;-71
2021/06/23 11:12:54;;;;;;;4.53;3.90;;;33.80;59.20;;;;;;6299761;28;20277;-71
2021/06/23 11:15:57;;;;;;;5.07;3.90;;;33.70;58.80;;;;;;6311139;28;20566;-71
2021/06/23 11:19:08;;;;;;;5.30;3.58;;;33.60;59.30;;;;;;6309793;28;20206;-71
2021/06/23 11:22:15;;;;;;;5.22;4.30;;;33.70;58.80;;;;;;6306650;28;20329;-71
2021/06/23 11:25:21;;;;;;;4.03;3.67;;;34.20;58.30;;;;;;6296059;28;20194;-71
2021/06/23 11:28:28;;;;;;;6.15;4.30;;;34.30;57.20;;;;;;6311125;28;20195;-71
2021/06/23 11:31:46;;;;;;;6.88;4.45;;;34.10;57.00;;;;;;6305662;28;20194;-71
2021/06/23 11:34:53;;;;;;;5.55;4.28;;;33.90;57.30;;;;;;6316403;28;20243;-71
2021/06/23 11:37:56;;;;;;;5.22;4.50;;;34.00;57.00;;;;;;6311411;28;20217;-71
2021/06/23 11:40:59;;;;;;;4.43;4.03;;;34.30;56.60;;;;;;6307101;28;20206;-71
2021/06/23 11:44:01;;;;;;;5.10;3.83;;;34.40;56.00;;;;;;6310250;28;20232;-71
2021/06/23 11:47:04;;;;;;;4.88;4.38;;;34.60;56.20;;;;;;6313759;28;20509;-72
2021/06/23 11:50:07;;;;;;;4.50;4.10;;;34.80;55.40;;;;;;6314917;28;20201;-72
2021/06/23 11:53:17;;;;;;;5.65;4.68;;;34.90;54.60;;;;;;6309143;28;20224;-72
2021/06/23 11:56:20;;;;;;;5.15;4.47;;;34.80;55.40;;;;;;6305710;28;20248;-72
2021/06/23 11:59:22;;;;;;;5.20;4.00;;;34.80;54.20;;;;;;6304237;28;20203;-72
2021/06/23 12:02:26;;;;;;;5.38;4.50;;;34.90;54.60;;;;;;6305575;28;20243;-72
2021/06/23 12:05:30;;;;;;;4.30;3.90;;;34.80;54.10;;;;;;6307318;28;20277;-72
2021/06/23 12:08:33;;;;;;;8.38;4.10;;;34.90;53.80;;;;;;6308978;28;20641;-72
2021/06/23 12:11:35;;;;;;;6.90;4.00;;;34.50;53.30;;;;;;6305378;28;20199;-72
2021/06/23 12:14:39;;;;;;;7.72;3.90;;;34.50;52.90;;;;;;6310047;28;20194;-72
2021/06/23 12:17:41;;;;;;;6.53;4.45;;;34.50;53.00;;;;;;6309066;28;20613;-71
2021/06/23 12:20:44;;;;;;;5.32;3.85;;;34.60;52.60;;;;;;6309215;28;20276;-71
2021/06/23 12:23:46;;;;;;;4.30;3.90;;;34.70;52.80;;;;;;6310401;28;20758;-71
2021/06/23 12:26:48;;;;;;;4.88;4.00;;;34.70;52.90;;;;;;6313817;28;20198;-71
2021/06/23 12:29:50;;;;;;;4.75;4.00;;;34.60;52.90;;;;;;6316606;28;20202;-71
2021/06/23 12:32:58;;;;;;;5.20;4.70;;;34.70;52.80;;;;;;6300413;28;20194;-71
2021/06/23 12:36:00;;;;;;;5.30;3.92;;;35.00;52.20;;;;;;6307484;28;20256;-71
2021/06/23 12:39:03;;;;;;;7.28;3.95;;;34.60;52.40;;;;;;6297873;28;20205;-72
2021/06/23 12:42:06;;;;;;;4.15;3.75;;;34.50;53.60;;;;;;6311388;28;20194;-72
2021/06/23 12:45:09;;;;;;;5.15;4.65;;;34.50;53.30;;;;;;6310569;28;20229;-72
2021/06/23 12:48:12;;;;;;;5.30;4.30;;;34.90;53.10;;;;;;6314949;28;20710;-72
2021/06/23 12:51:14;;;;;;;5.90;4.10;;;34.90;52.50;;;;;;6314375;28;20293;-71
2021/06/23 12:54:17;;;;;;;5.03;3.90;;;34.70;52.80;;;;;;6305934;28;20528;-71
2021/06/23 12:57:19;;;;;;;5.40;4.45;;;35.00;52.90;;;;;;6318438;28;20189;-71
2021/06/23 13:00:22;;;;;;;4.30;3.90;;;34.90;52.30;;;;;;6319158;28;20209;-71
2021/06/23 13:03:25;;;;;;;7.10;4.50;;;35.40;52.10;;;;;;6319180;28;20187;-71
2021/06/23 13:06:27;;;;;;;5.22;4.82;;;35.10;50.70;;;;;;6307709;28;20690;-71
2021/06/23 13:09:30;;;;;;;4.63;4.20;;;34.90;51.30;;;;;;6300856;28;20199;-71
2021/06/23 13:12:32;;;;;;;5.60;4.43;;;35.10;51.60;;;;;;6320324;28;20700;-71
2021/06/23 13:15:37;;;;;;;4.47;4.07;;;35.70;50.60;;;;;;6304844;28;20229;-71
2021/06/23 13:18:40;;;;;;;5.60;4.90;;;36.00;49.60;;;;;;6309902;28;20187;-71
2021/06/23 13:21:42;;;;;;;6.18;4.18;;;36.10;49.80;;;;;;6301663;28;20217;-71
2021/06/23 13:24:44;;;;;;;7.63;4.55;;;36.30;49.50;;;;;;6303671;28;20198;-71
2021/06/23 13:27:48;;;;;;;5.68;4.88;;;36.50;50.00;;;;;;6304568;28;20614;-71
2021/06/23 13:30:50;;;;;;;6.30;4.30;;;36.50;49.30;;;;;;6300275;28;20289;-71
2021/06/23 13:33:52;;;;;;;6.30;4.97;;;36.30;49.70;;;;;;6318302;28;20190;-71
2021/06/23 13:36:54;;;;;;;5.22;4.18;;;36.60;50.30;;;;;;6310272;28;20219;-71
2021/06/23 13:39:56;;;;;;;6.53;4.93;;;36.90;49.20;;;;;;6310186;28;20308;-71
2021/06/23 13:42:59;;;;;;;5.82;4.55;;;37.10;48.60;;;;;;6306490;28;20182;-71
2021/06/23 13:46:02;;;;;;;7.60;4.93;;;37.30;48.70;;;;;;6314049;28;20232;-71
2021/06/23 13:49:09;;;;;;;6.18;4.90;;;37.20;48.90;;;;;;6310101;28;20274;-71
2021/06/23 13:52:13;;;;;;;6.22;4.65;;;37.70;48.70;;;;;;6309935;28;20236;-71
2021/06/23 13:55:23;;;;;;;8.40;5.40;;;37.80;48.00;;;;;;6304061;28;20186;-71
2021/06/23 13:58:27;;;;;;;4.93;4.00;;;37.50;48.10;;;;;;6300239;28;20191;-72
2021/06/23 14:01:29;;;;;;;6.22;4.90;;;37.60;47.30;;;;;;6305179;28;20210;-72
2021/06/23 14:04:31;;;;;;;6.57;5.00;;;37.70;46.90;;;;;;6304979;28;20660;-72
2021/06/23 14:07:34;;;;;;;8.93;5.28;;;38.20;47.20;;;;;;6302488;28;20201;-72
2021/06/23 14:10:37;;;;;;;5.28;4.68;;;38.10;46.80;;;;;;6308272;28;20202;-71
2021/06/23 14:13:39;;;;;;;7.40;5.10;;;38.60;47.00;;;;;;6297754;28;20234;-72
2021/06/23 14:16:42;;;;;;;6.90;5.07;;;39.10;46.00;;;;;;6305055;28;20328;-72
2021/06/23 14:19:44;;;;;;;5.13;4.72;;;39.40;45.90;;;;;;6301931;28;20317;-72
2021/06/23 14:22:46;;;;;;;5.85;5.25;;;39.40;46.00;;;;;;6307661;28;20198;-72
2021/06/23 14:25:50;;;;;;;8.07;5.65;;;39.40;45.10;;;;;;6300650;28;20196;-72
2021/06/23 14:28:52;;;;;;;5.85;5.10;;;39.50;45.10;;;;;;6307694;28;20191;-72
2021/06/23 14:31:54;;;;;;;6.57;5.10;;;39.80;45.00;;;;;;6303665;28;20182;-72
2021/06/23 14:34:57;;;;;;;6.15;5.60;;;40.00;44.70;;;;;;6307440;28;20331;-72
2021/06/23 14:37:59;;;;;;;7.47;5.05;;;40.40;44.00;;;;;;6304125;28;20214;-72
2021/06/23 14:41:01;;;;;;;7.32;5.47;;;40.40;43.70;;;;;;6309362;28;20202;-72
2021/06/23 14:44:03;;;;;;;7.07;5.38;;;39.90;44.10;;;;;;6313081;28;20669;-72
2021/06/23 14:47:06;;;;;;;7.55;5.80;;;39.60;44.60;;;;;;6303171;28;20192;-71
2021/06/23 14:50:08;;;;;;;7.65;5.70;;;39.60;43.80;;;;;;6315518;28;20272;-72
2021/06/23 14:53:11;;;;;;;6.20;5.47;;;39.60;44.00;;;;;;6297730;28;20198;-71
2021/06/23 14:56:13;;;;;;;8.15;5.60;;;39.40;43.50;;;;;;6306387;28;20187;-71
2021/06/23 14:59:15;;;;;;;6.93;6.15;;;39.30;44.20;;;;;;6291245;28;20207;-71
2021/06/23 15:02:17;;;;;;;6.82;5.82;;;38.90;44.50;;;;;;6308818;28;20563;-71
2021/06/23 15:05:30;;;;;;;8.23;6.03;;;38.60;44.70;;;;;;6302115;28;20189;-71
2021/06/23 15:08:37;;;;;;;7.25;5.95;;;38.80;44.40;;;;;;6299319;28;20271;-73
2021/06/23 15:11:42;;;;;;;9.93;5.65;;;38.50;44.40;;;;;;6315922;28;20613;-72
2021/06/23 15:14:51;;;;;;;9.30;6.15;;;38.90;45.10;;;;;;6319844;28;20661;-72
2021/06/23 15:17:53;;;;;;;9.15;6.30;;;38.50;44.40;;;;;;6318594;28;20197;-72
2021/06/23 15:20:56;;;;;;;7.78;6.20;;;38.40;45.10;;;;;;6318263;28;20661;-72
2021/06/23 15:23:58;;;;;;;5.53;5.10;;;38.80;44.60;;;;;;6310353;28;20194;-72
2021/06/23 15:27:00;;;;;;;9.45;6.18;;;38.90;43.90;;;;;;6296990;28;20199;-72
2021/06/23 15:30:05;;;;;;;8.85;5.60;;;39.30;43.60;;;;;;6317933;28;20230;-72
2021/06/23 15:33:08;;;;;;;6.47;5.88;;;39.60;43.20;;;;;;6311132;28;20665;-72
2021/06/23 15:36:11;;;;;;;7.18;5.68;;;39.80;43.20;;;;;;6306808;28;20306;-72
2021/06/23 15:39:13;;;;;;;10.48;6.30;;;40.00;42.90;;;;;;6309858;28;20304;-72
2021/06/23 15:42:16;;;;;;;6.22;5.63;;;40.00;42.70;;;;;;6301331;28;20667;-72
2021/06/23 15:45:18;;;;;;;10.13;5.85;;;39.50;43.10;;;;;;6301896;28;20194;-72
2021/06/23 15:48:26;;;;;;;7.63;5.95;;;39.30;43.10;;;;;;6309160;28;20185;-72
2021/06/23 15:51:28;;;;;;;8.63;6.22;;;39.40;43.30;;;;;;6305484;28;20190;-72
2021/06/23 15:54:30;;;;;;;9.25;5.80;;;38.80;43.80;;;;;;6306828;28;20198;-71
2021/06/23 15:57:34;;;;;;;7.20;6.13;;;38.20;44.40;;;;;;6291080;28;20254;-71
2021/06/23 16:00:37;;;;;;;7.53;5.63;;;37.70;44.70;;;;;;6317327;28;20232;-71
2021/06/23 16:03:39;;;;;;;6.93;5.40;;;37.80;45.00;;;;;;6320108;28;20190;-71
2021/06/23 16:06:42;;;;;;;21.42;8.65;;;38.20;44.90;;;;;;6320410;28;20206;-71
2021/06/23 16:09:44;;;;;;;22.13;7.55;;;38.40;45.00;;;;;;6317850;28;20294;-71
2021/06/23 16:12:50;;;;;;;7.60;6.05;;;38.20;45.30;;;;;;6317475;28;20230;-71
2021/06/23 16:15:53;;;;;;;6.63;6.03;;;38.10;45.20;;;;;;6319183;28;20201;-71
2021/06/23 16:18:55;;;;;;;11.32;7.15;;;37.80;46.10;;;;;;6321845;28;20196;-71
2021/06/23 16:22:02;;;;;;;8.90;6.55;;;37.20;46.90;;;;;;6321945;28;20221;-71